sensor_id;sensor_type;location;lat;lon;timestamp;P1;durP1;ratioP1;P2;durP2;ratioP2
5876;SDS011;2964;42.144;24.730;2023-04-01T00:01:24;10.70;;;9.80;;
5876;SDS011;2964;42.144;24.730;2023-04-01T00:03:51;13.30;;;10.27;;
5876;SDS011;2964;42.144;24.730;2023-04-01T00:06:19;12.27;;;9.67;;
5876;SDS011;2964;42.144;24.730;2023-04-01T00:08:45;13.17;;;10.67;;
5876;SDS011;2964;42.144;24.730;2023-04-01T00:11:12;10.53;;;9.63;;
5876;SDS011;2964;42.144;24.730;2023-04-01T00:13:40;11.30;;;10.20;;
5876;SDS011;2964;42.144;24.730;2023-04-01T00:16:07;11.43;;;10.30;;
5876;SDS011;2964;42.144;24.730;2023-04-01T00:18:35;11.67;;;10.57;;
5876;SDS011;2964;42.144;24.730;2023-04-01T00:21:02;11.00;;;9.90;;
5876;SDS011;2964;42.144;24.730;2023-04-01T00:23:29;11.40;;;9.80;;
5876;SDS011;2964;42.144;24.730;2023-04-01T00:25:55;12.77;;;11.27;;
5876;SDS011;2964;42.144;24.730;2023-04-01T00:28:22;12.10;;;11.00;;
5876;SDS011;2964;42.144;24.730;2023-04-01T00:30:49;14.30;;;11.03;;
5876;SDS011;2964;42.144;24.730;2023-04-01T00:33:15;11.13;;;10.20;;
5876;SDS011;2964;42.144;24.730;2023-04-01T00:35:44;12.10;;;10.90;;
5876;SDS011;2964;42.144;24.730;2023-04-01T00:38:10;12.30;;;11.07;;
5876;SDS011;2964;42.144;24.730;2023-04-01T00:40:38;12.13;;;10.90;;
5876;SDS011;2964;42.144;24.730;2023-04-01T00:43:11;14.13;;;11.13;;
5876;SDS011;2964;42.144;24.730;2023-04-01T00:45:40;13.60;;;12.03;;
5876;SDS011;2964;42.144;24.730;2023-04-01T00:48:09;13.00;;;11.77;;
5876;SDS011;2964;42.144;24.730;2023-04-01T00:50:39;14.27;;;11.97;;
5876;SDS011;2964;42.144;24.730;2023-04-01T00:53:09;13.93;;;12.50;;
5876;SDS011;2964;42.144;24.730;2023-04-01T00:55:38;15.13;;;11.00;;
5876;SDS011;2964;42.144;24.730;2023-04-01T00:58:09;15.37;;;11.37;;
5876;SDS011;2964;42.144;24.730;2023-04-01T01:00:39;16.43;;;11.17;;
5876;SDS011;2964;42.144;24.730;2023-04-01T01:03:06;12.50;;;11.23;;
5876;SDS011;2964;42.144;24.730;2023-04-01T01:05:36;16.33;;;11.23;;
5876;SDS011;2964;42.144;24.730;2023-04-01T01:08:14;12.43;;;11.17;;
5876;SDS011;2964;42.144;24.730;2023-04-01T01:10:49;13.33;;;12.00;;
5876;SDS011;2964;42.144;24.730;2023-04-01T01:13:17;14.43;;;10.67;;
5876;SDS011;2964;42.144;24.730;2023-04-01T01:15:51;15.17;;;12.07;;
5876;SDS011;2964;42.144;24.730;2023-04-01T01:18:25;13.40;;;12.00;;
5876;SDS011;2964;42.144;24.730;2023-04-01T01:24:12;13.13;;;11.83;;
5876;SDS011;2964;42.144;24.730;2023-04-01T01:26:54;14.33;;;11.43;;
5876;SDS011;2964;42.144;24.730;2023-04-01T01:32:37;17.63;;;11.90;;
5876;SDS011;2964;42.144;24.730;2023-04-01T01:35:18;15.73;;;12.27;;
5876;SDS011;2964;42.144;24.730;2023-04-01T01:37:49;13.50;;;12.07;;
5876;SDS011;2964;42.144;24.730;2023-04-01T01:40:20;17.87;;;13.03;;
5876;SDS011;2964;42.144;24.730;2023-04-01T01:42:48;15.83;;;12.60;;
5876;SDS011;2964;42.144;24.730;2023-04-01T01:45:18;19.97;;;12.53;;
5876;SDS011;2964;42.144;24.730;2023-04-01T01:47:48;17.90;;;12.50;;
5876;SDS011;2964;42.144;24.730;2023-04-01T01:50:17;16.03;;;12.37;;
5876;SDS011;2964;42.144;24.730;2023-04-01T01:52:45;13.37;;;12.17;;
5876;SDS011;2964;42.144;24.730;2023-04-01T01:55:24;19.00;;;12.03;;
5876;SDS011;2964;42.144;24.730;2023-04-01T01:57:54;46.27;;;14.23;;
5876;SDS011;2964;42.144;24.730;2023-04-01T02:00:24;20.90;;;12.07;;
5876;SDS011;2964;42.144;24.730;2023-04-01T02:02:52;15.50;;;12.60;;
5876;SDS011;2964;42.144;24.730;2023-04-01T02:05:22;16.07;;;12.77;;
5876;SDS011;2964;42.144;24.730;2023-04-01T02:07:53;11.70;;;10.60;;
5876;SDS011;2964;42.144;24.730;2023-04-01T02:10:24;12.03;;;10.50;;
5876;SDS011;2964;42.144;24.730;2023-04-01T02:12:53;11.83;;;10.43;;
5876;SDS011;2964;42.144;24.730;2023-04-01T02:15:24;12.50;;;10.30;;
5876;SDS011;2964;42.144;24.730;2023-04-01T02:17:55;13.27;;;11.80;;
5876;SDS011;2964;42.144;24.730;2023-04-01T02:20:24;14.53;;;11.20;;
5876;SDS011;2964;42.144;24.730;2023-04-01T02:22:53;14.20;;;11.77;;
5876;SDS011;2964;42.144;24.730;2023-04-01T02:25:23;12.70;;;11.47;;
5876;SDS011;2964;42.144;24.730;2023-04-01T02:27:53;13.90;;;12.27;;
5876;SDS011;2964;42.144;24.730;2023-04-01T02:30:22;17.17;;;12.17;;
5876;SDS011;2964;42.144;24.730;2023-04-01T02:32:51;18.97;;;12.83;;
5876;SDS011;2964;42.144;24.730;2023-04-01T02:35:19;14.23;;;12.83;;
5876;SDS011;2964;42.144;24.730;2023-04-01T02:37:48;20.77;;;13.37;;
5876;SDS011;2964;42.144;24.730;2023-04-01T02:40:16;13.13;;;11.83;;
5876;SDS011;2964;42.144;24.730;2023-04-01T02:42:43;18.60;;;13.13;;
5876;SDS011;2964;42.144;24.730;2023-04-01T02:45:11;13.57;;;12.13;;
5876;SDS011;2964;42.144;24.730;2023-04-01T02:47:39;14.03;;;12.47;;
5876;SDS011;2964;42.144;24.730;2023-04-01T02:50:06;13.73;;;12.43;;
5876;SDS011;2964;42.144;24.730;2023-04-01T02:52:33;13.90;;;12.60;;
5876;SDS011;2964;42.144;24.730;2023-04-01T02:55:02;18.07;;;14.60;;
5876;SDS011;2964;42.144;24.730;2023-04-01T02:57:29;17.40;;;15.53;;
5876;SDS011;2964;42.144;24.730;2023-04-01T02:59:56;18.93;;;14.83;;
5876;SDS011;2964;42.144;24.730;2023-04-01T03:02:22;15.97;;;14.33;;
5876;SDS011;2964;42.144;24.730;2023-04-01T03:04:49;20.00;;;14.60;;
5876;SDS011;2964;42.144;24.730;2023-04-01T03:07:16;17.40;;;13.77;;
5876;SDS011;2964;42.144;24.730;2023-04-01T03:09:42;17.37;;;14.20;;
5876;SDS011;2964;42.144;24.730;2023-04-01T03:12:11;17.60;;;15.80;;
5876;SDS011;2964;42.144;24.730;2023-04-01T03:14:37;19.80;;;15.30;;
5876;SDS011;2964;42.144;24.730;2023-04-01T03:17:04;17.53;;;14.67;;
5876;SDS011;2964;42.144;24.730;2023-04-01T03:19:31;16.50;;;14.67;;
5876;SDS011;2964;42.144;24.730;2023-04-01T03:21:58;19.50;;;15.10;;
5876;SDS011;2964;42.144;24.730;2023-04-01T03:24:24;18.37;;;15.87;;
5876;SDS011;2964;42.144;24.730;2023-04-01T03:26:51;20.27;;;15.30;;
5876;SDS011;2964;42.144;24.730;2023-04-01T03:29:19;18.47;;;14.23;;
5876;SDS011;2964;42.144;24.730;2023-04-01T03:31:46;16.27;;;14.50;;
5876;SDS011;2964;42.144;24.730;2023-04-01T03:34:13;15.97;;;13.67;;
5876;SDS011;2964;42.144;24.730;2023-04-01T03:36:39;25.10;;;13.10;;
5876;SDS011;2964;42.144;24.730;2023-04-01T03:39:06;22.17;;;14.23;;
5876;SDS011;2964;42.144;24.730;2023-04-01T03:41:34;15.73;;;13.17;;
5876;SDS011;2964;42.144;24.730;2023-04-01T03:44:02;14.80;;;13.20;;
5876;SDS011;2964;42.144;24.730;2023-04-01T03:46:30;15.30;;;13.43;;
5876;SDS011;2964;42.144;24.730;2023-04-01T03:48:56;16.33;;;13.63;;
5876;SDS011;2964;42.144;24.730;2023-04-01T03:51:23;13.80;;;12.60;;
5876;SDS011;2964;42.144;24.730;2023-04-01T03:53:50;14.83;;;12.90;;
5876;SDS011;2964;42.144;24.730;2023-04-01T03:56:16;16.93;;;13.33;;
5876;SDS011;2964;42.144;24.730;2023-04-01T03:58:43;22.07;;;13.37;;
5876;SDS011;2964;42.144;24.730;2023-04-01T04:01:13;16.93;;;13.23;;
5876;SDS011;2964;42.144;24.730;2023-04-01T04:03:43;18.07;;;13.43;;
5876;SDS011;2964;42.144;24.730;2023-04-01T04:06:11;16.57;;;13.97;;
5876;SDS011;2964;42.144;24.730;2023-04-01T04:08:38;24.23;;;15.20;;
5876;SDS011;2964;42.144;24.730;2023-04-01T04:11:05;17.97;;;13.53;;
5876;SDS011;2964;42.144;24.730;2023-04-01T04:13:32;18.63;;;14.40;;
5876;SDS011;2964;42.144;24.730;2023-04-01T04:15:59;15.57;;;13.63;;
5876;SDS011;2964;42.144;24.730;2023-04-01T04:18:26;13.93;;;12.37;;
5876;SDS011;2964;42.144;24.730;2023-04-01T04:20:54;21.53;;;13.10;;
5876;SDS011;2964;42.144;24.730;2023-04-01T04:23:20;15.07;;;13.57;;
5876;SDS011;2964;42.144;24.730;2023-04-01T04:25:54;17.83;;;13.50;;
5876;SDS011;2964;42.144;24.730;2023-04-01T04:28:22;19.93;;;13.20;;
5876;SDS011;2964;42.144;24.730;2023-04-01T04:30:49;19.70;;;13.97;;
5876;SDS011;2964;42.144;24.730;2023-04-01T04:33:16;13.57;;;11.97;;
5876;SDS011;2964;42.144;24.730;2023-04-01T04:35:43;11.30;;;10.33;;
5876;SDS011;2964;42.144;24.730;2023-04-01T04:38:11;13.30;;;10.70;;
5876;SDS011;2964;42.144;24.730;2023-04-01T04:40:38;15.07;;;10.43;;
5876;SDS011;2964;42.144;24.730;2023-04-01T04:43:05;16.17;;;11.30;;
5876;SDS011;2964;42.144;24.730;2023-04-01T04:45:32;13.30;;;10.47;;
5876;SDS011;2964;42.144;24.730;2023-04-01T04:47:59;11.20;;;10.03;;
5876;SDS011;2964;42.144;24.730;2023-04-01T04:50:25;13.77;;;10.40;;
5876;SDS011;2964;42.144;24.730;2023-04-01T04:52:52;11.57;;;10.47;;
5876;SDS011;2964;42.144;24.730;2023-04-01T04:55:21;11.67;;;10.47;;
5876;SDS011;2964;42.144;24.730;2023-04-01T04:57:48;17.30;;;11.60;;
5876;SDS011;2964;42.144;24.730;2023-04-01T05:00:15;12.20;;;11.00;;
5876;SDS011;2964;42.144;24.730;2023-04-01T05:02:41;11.40;;;9.57;;
5876;SDS011;2964;42.144;24.730;2023-04-01T05:05:08;12.63;;;9.97;;
5876;SDS011;2964;42.144;24.730;2023-04-01T05:07:35;11.03;;;9.63;;
5876;SDS011;2964;42.144;24.730;2023-04-01T05:10:02;13.20;;;9.37;;
5876;SDS011;2964;42.144;24.730;2023-04-01T05:12:31;12.20;;;10.00;;
5876;SDS011;2964;42.144;24.730;2023-04-01T05:15:01;10.80;;;9.90;;
5876;SDS011;2964;42.144;24.730;2023-04-01T05:17:29;14.60;;;9.83;;
5876;SDS011;2964;42.144;24.730;2023-04-01T05:19:56;10.03;;;9.13;;
5876;SDS011;2964;42.144;24.730;2023-04-01T05:22:22;10.67;;;9.67;;
5876;SDS011;2964;42.144;24.730;2023-04-01T05:24:49;9.53;;;8.53;;
5876;SDS011;2964;42.144;24.730;2023-04-01T05:27:16;9.73;;;8.90;;
5876;SDS011;2964;42.144;24.730;2023-04-01T05:29:44;10.27;;;8.97;;
5876;SDS011;2964;42.144;24.730;2023-04-01T05:32:11;9.60;;;8.77;;
5876;SDS011;2964;42.144;24.730;2023-04-01T05:34:37;12.23;;;11.00;;
5876;SDS011;2964;42.144;24.730;2023-04-01T05:37:04;15.37;;;9.20;;
5876;SDS011;2964;42.144;24.730;2023-04-01T05:39:35;18.17;;;9.60;;
5876;SDS011;2964;42.144;24.730;2023-04-01T05:42:02;10.23;;;9.20;;
5876;SDS011;2964;42.144;24.730;2023-04-01T05:44:29;9.87;;;8.43;;
5876;SDS011;2964;42.144;24.730;2023-04-01T05:46:57;9.67;;;8.77;;
5876;SDS011;2964;42.144;24.730;2023-04-01T05:49:24;9.63;;;7.80;;
5876;SDS011;2964;42.144;24.730;2023-04-01T05:51:51;11.77;;;8.17;;
5876;SDS011;2964;42.144;24.730;2023-04-01T05:54:17;9.33;;;8.43;;
5876;SDS011;2964;42.144;24.730;2023-04-01T05:56:44;10.33;;;7.97;;
5876;SDS011;2964;42.144;24.730;2023-04-01T05:59:11;8.33;;;7.63;;
5876;SDS011;2964;42.144;24.730;2023-04-01T06:01:38;10.33;;;9.30;;
5876;SDS011;2964;42.144;24.730;2023-04-01T06:04:09;10.77;;;8.87;;
5876;SDS011;2964;42.144;24.730;2023-04-01T06:06:39;8.67;;;8.00;;
5876;SDS011;2964;42.144;24.730;2023-04-01T06:09:07;9.47;;;8.47;;
5876;SDS011;2964;42.144;24.730;2023-04-01T06:11:42;9.73;;;8.47;;
5876;SDS011;2964;42.144;24.730;2023-04-01T06:14:21;12.83;;;8.67;;
5876;SDS011;2964;42.144;24.730;2023-04-01T06:17:03;12.67;;;8.90;;
5876;SDS011;2964;42.144;24.730;2023-04-01T06:19:44;9.67;;;8.67;;
5876;SDS011;2964;42.144;24.730;2023-04-01T06:25:18;9.83;;;8.87;;
5876;SDS011;2964;42.144;24.730;2023-04-01T06:28:02;12.00;;;8.63;;
5876;SDS011;2964;42.144;24.730;2023-04-01T06:30:41;10.43;;;9.33;;
5876;SDS011;2964;42.144;24.730;2023-04-01T06:33:17;11.17;;;8.70;;
5876;SDS011;2964;42.144;24.730;2023-04-01T06:36:05;11.30;;;8.83;;
5876;SDS011;2964;42.144;24.730;2023-04-01T06:39:06;10.70;;;9.07;;
5876;SDS011;2964;42.144;24.730;2023-04-01T06:42:02;9.67;;;8.87;;
5876;SDS011;2964;42.144;24.730;2023-04-01T06:44:41;9.33;;;8.63;;
5876;SDS011;2964;42.144;24.730;2023-04-01T06:47:20;12.17;;;8.93;;
5876;SDS011;2964;42.144;24.730;2023-04-01T06:49:56;11.03;;;9.47;;
5876;SDS011;2964;42.144;24.730;2023-04-01T06:52:35;9.67;;;8.87;;
5876;SDS011;2964;42.144;24.730;2023-04-01T06:55:16;11.77;;;9.03;;
5876;SDS011;2964;42.144;24.730;2023-04-01T06:57:50;11.90;;;8.70;;
5876;SDS011;2964;42.144;24.730;2023-04-01T07:00:22;10.00;;;9.00;;
5876;SDS011;2964;42.144;24.730;2023-04-01T07:02:54;11.00;;;8.20;;
5876;SDS011;2964;42.144;24.730;2023-04-01T07:05:29;9.70;;;8.73;;
5876;SDS011;2964;42.144;24.730;2023-04-01T07:08:00;10.00;;;8.33;;
5876;SDS011;2964;42.144;24.730;2023-04-01T07:10:31;9.80;;;8.43;;
5876;SDS011;2964;42.144;24.730;2023-04-01T07:13:02;12.00;;;8.83;;
5876;SDS011;2964;42.144;24.730;2023-04-01T07:15:36;9.90;;;8.73;;
5876;SDS011;2964;42.144;24.730;2023-04-01T07:18:07;11.07;;;9.47;;
5876;SDS011;2964;42.144;24.730;2023-04-01T07:20:41;9.13;;;8.23;;
5876;SDS011;2964;42.144;24.730;2023-04-01T07:23:15;9.13;;;8.33;;
5876;SDS011;2964;42.144;24.730;2023-04-01T07:25:47;10.13;;;9.27;;
5876;SDS011;2964;42.144;24.730;2023-04-01T07:28:20;9.30;;;8.60;;
5876;SDS011;2964;42.144;24.730;2023-04-01T07:30:51;8.03;;;7.40;;
5876;SDS011;2964;42.144;24.730;2023-04-01T07:33:29;9.43;;;8.50;;
5876;SDS011;2964;42.144;24.730;2023-04-01T07:36:05;9.77;;;8.13;;
5876;SDS011;2964;42.144;24.730;2023-04-01T07:38:40;9.43;;;8.53;;
5876;SDS011;2964;42.144;24.730;2023-04-01T07:41:21;11.23;;;9.07;;
5876;SDS011;2964;42.144;24.730;2023-04-01T07:43:55;11.20;;;8.63;;
5876;SDS011;2964;42.144;24.730;2023-04-01T07:46:33;12.13;;;8.20;;
5876;SDS011;2964;42.144;24.730;2023-04-01T07:49:14;10.07;;;8.57;;
5876;SDS011;2964;42.144;24.730;2023-04-01T07:51:48;10.83;;;9.07;;
5876;SDS011;2964;42.144;24.730;2023-04-01T07:54:26;17.67;;;8.67;;
5876;SDS011;2964;42.144;24.730;2023-04-01T07:57:00;10.13;;;9.33;;
5876;SDS011;2964;42.144;24.730;2023-04-01T07:59:32;8.63;;;7.87;;
5876;SDS011;2964;42.144;24.730;2023-04-01T08:02:09;14.97;;;7.90;;
5876;SDS011;2964;42.144;24.730;2023-04-01T08:04:50;9.57;;;7.97;;
5876;SDS011;2964;42.144;24.730;2023-04-01T08:07:32;13.33;;;8.40;;
5876;SDS011;2964;42.144;24.730;2023-04-01T08:10:10;8.07;;;7.33;;
5876;SDS011;2964;42.144;24.730;2023-04-01T08:12:46;8.73;;;8.13;;
5876;SDS011;2964;42.144;24.730;2023-04-01T08:15:20;8.77;;;7.93;;
5876;SDS011;2964;42.144;24.730;2023-04-01T08:17:55;11.60;;;8.43;;
5876;SDS011;2964;42.144;24.730;2023-04-01T08:20:32;9.20;;;8.50;;
5876;SDS011;2964;42.144;24.730;2023-04-01T08:23:04;10.73;;;9.20;;
5876;SDS011;2964;42.144;24.730;2023-04-01T08:25:39;12.30;;;8.83;;
5876;SDS011;2964;42.144;24.730;2023-04-01T08:28:13;11.87;;;9.27;;
5876;SDS011;2964;42.144;24.730;2023-04-01T08:30:44;9.83;;;7.60;;
5876;SDS011;2964;42.144;24.730;2023-04-01T08:33:18;11.17;;;9.80;;
5876;SDS011;2964;42.144;24.730;2023-04-01T08:35:49;14.43;;;9.43;;
5876;SDS011;2964;42.144;24.730;2023-04-01T08:38:20;16.43;;;10.43;;
5876;SDS011;2964;42.144;24.730;2023-04-01T08:41:02;10.23;;;9.23;;
5876;SDS011;2964;42.144;24.730;2023-04-01T08:46:53;14.43;;;8.23;;
5876;SDS011;2964;42.144;24.730;2023-04-01T08:52:50;11.23;;;10.20;;
5876;SDS011;2964;42.144;24.730;2023-04-01T08:55:31;11.80;;;9.73;;
5876;SDS011;2964;42.144;24.730;2023-04-01T09:01:03;10.63;;;9.70;;
5876;SDS011;2964;42.144;24.730;2023-04-01T09:03:44;12.07;;;11.07;;
5876;SDS011;2964;42.144;24.730;2023-04-01T09:06:26;10.40;;;9.50;;
5876;SDS011;2964;42.144;24.730;2023-04-01T09:09:02;9.37;;;8.47;;
5876;SDS011;2964;42.144;24.730;2023-04-01T09:11:44;11.23;;;9.03;;
5876;SDS011;2964;42.144;24.730;2023-04-01T09:14:41;11.23;;;10.10;;
5876;SDS011;2964;42.144;24.730;2023-04-01T09:17:38;10.03;;;8.93;;
5876;SDS011;2964;42.144;24.730;2023-04-01T09:20:25;15.27;;;9.23;;
5876;SDS011;2964;42.144;24.730;2023-04-01T09:23:16;10.80;;;9.70;;
5876;SDS011;2964;42.144;24.730;2023-04-01T09:26:03;12.57;;;9.13;;
5876;SDS011;2964;42.144;24.730;2023-04-01T09:28:49;12.60;;;9.50;;
5876;SDS011;2964;42.144;24.730;2023-04-01T09:31:36;13.00;;;8.77;;
5876;SDS011;2964;42.144;24.730;2023-04-01T09:34:25;10.77;;;9.40;;
5876;SDS011;2964;42.144;24.730;2023-04-01T09:37:19;12.37;;;8.87;;
5876;SDS011;2964;42.144;24.730;2023-04-01T09:42:45;11.83;;;8.93;;
5876;SDS011;2964;42.144;24.730;2023-04-01T09:45:33;12.27;;;9.57;;
5876;SDS011;2964;42.144;24.730;2023-04-01T09:48:12;12.27;;;9.77;;
5876;SDS011;2964;42.144;24.730;2023-04-01T09:50:48;10.03;;;8.93;;
5876;SDS011;2964;42.144;24.730;2023-04-01T09:53:39;13.30;;;9.57;;
5876;SDS011;2964;42.144;24.730;2023-04-01T09:56:41;12.20;;;9.40;;
5876;SDS011;2964;42.144;24.730;2023-04-01T09:59:39;10.13;;;9.13;;
5876;SDS011;2964;42.144;24.730;2023-04-01T10:06:04;16.20;;;10.37;;
5876;SDS011;2964;42.144;24.730;2023-04-01T10:09:02;17.40;;;15.50;;
5876;SDS011;2964;42.144;24.730;2023-04-01T10:18:25;9.77;;;9.00;;
5876;SDS011;2964;42.144;24.730;2023-04-01T10:21:25;11.37;;;9.77;;
5876;SDS011;2964;42.144;24.730;2023-04-01T10:24:19;16.37;;;10.53;;
5876;SDS011;2964;42.144;24.730;2023-04-01T10:27:33;15.03;;;10.97;;
5876;SDS011;2964;42.144;24.730;2023-04-01T10:30:29;11.97;;;10.10;;
5876;SDS011;2964;42.144;24.730;2023-04-01T10:36:42;17.10;;;10.03;;
5876;SDS011;2964;42.144;24.730;2023-04-01T10:39:33;12.87;;;11.00;;
5876;SDS011;2964;42.144;24.730;2023-04-01T10:51:42;11.97;;;10.77;;
5876;SDS011;2964;42.144;24.730;2023-04-01T10:54:36;13.13;;;10.67;;
5876;SDS011;2964;42.144;24.730;2023-04-01T10:57:16;11.77;;;10.67;;
5876;SDS011;2964;42.144;24.730;2023-04-01T11:00:10;14.63;;;12.37;;
5876;SDS011;2964;42.144;24.730;2023-04-01T11:03:13;11.43;;;10.33;;
5876;SDS011;2964;42.144;24.730;2023-04-01T11:06:29;12.60;;;10.80;;
5876;SDS011;2964;42.144;24.730;2023-04-01T11:16:01;12.43;;;9.23;;
5876;SDS011;2964;42.144;24.730;2023-04-01T11:22:13;10.77;;;9.77;;
5876;SDS011;2964;42.144;24.730;2023-04-01T11:28:07;12.00;;;10.50;;
5876;SDS011;2964;42.144;24.730;2023-04-01T11:30:53;11.67;;;10.27;;
5876;SDS011;2964;42.144;24.730;2023-04-01T11:33:44;10.93;;;9.90;;
5876;SDS011;2964;42.144;24.730;2023-04-01T11:36:20;11.17;;;10.00;;
5876;SDS011;2964;42.144;24.730;2023-04-01T11:39:05;11.07;;;10.00;;
5876;SDS011;2964;42.144;24.730;2023-04-01T11:41:47;11.10;;;9.97;;
5876;SDS011;2964;42.144;24.730;2023-04-01T11:47:18;10.57;;;9.57;;
5876;SDS011;2964;42.144;24.730;2023-04-01T11:49:57;10.43;;;9.40;;
5876;SDS011;2964;42.144;24.730;2023-04-01T11:52:44;10.77;;;9.77;;
5876;SDS011;2964;42.144;24.730;2023-04-01T11:55:27;19.93;;;9.77;;
5876;SDS011;2964;42.144;24.730;2023-04-01T11:58:15;9.50;;;8.90;;
5876;SDS011;2964;42.144;24.730;2023-04-01T12:00:59;15.83;;;9.30;;
5876;SDS011;2964;42.144;24.730;2023-04-01T12:03:51;12.87;;;11.57;;
5876;SDS011;2964;42.144;24.730;2023-04-01T12:06:58;15.23;;;9.87;;
5876;SDS011;2964;42.144;24.730;2023-04-01T12:09:33;12.67;;;9.70;;
5876;SDS011;2964;42.144;24.730;2023-04-01T12:12:12;11.63;;;9.10;;
5876;SDS011;2964;42.144;24.730;2023-04-01T12:14:52;16.27;;;9.47;;
5876;SDS011;2964;42.144;24.730;2023-04-01T12:17:29;21.60;;;10.53;;
5876;SDS011;2964;42.144;24.730;2023-04-01T12:20:12;13.57;;;10.73;;
5876;SDS011;2964;42.144;24.730;2023-04-01T12:22:58;16.80;;;10.60;;
5876;SDS011;2964;42.144;24.730;2023-04-01T12:25:48;23.33;;;10.07;;
5876;SDS011;2964;42.144;24.730;2023-04-01T12:28:33;11.10;;;9.87;;
5876;SDS011;2964;42.144;24.730;2023-04-01T12:31:18;10.37;;;9.43;;
5876;SDS011;2964;42.144;24.730;2023-04-01T12:37:00;10.40;;;9.43;;
5876;SDS011;2964;42.144;24.730;2023-04-01T12:39:38;9.87;;;8.87;;
5876;SDS011;2964;42.144;24.730;2023-04-01T12:42:27;14.70;;;8.97;;
5876;SDS011;2964;42.144;24.730;2023-04-01T12:45:22;9.90;;;8.97;;
5876;SDS011;2964;42.144;24.730;2023-04-01T12:51:01;11.13;;;8.53;;
5876;SDS011;2964;42.144;24.730;2023-04-01T12:53:52;10.63;;;8.37;;
5876;SDS011;2964;42.144;24.730;2023-04-01T12:56:39;8.70;;;7.87;;
5876;SDS011;2964;42.144;24.730;2023-04-01T12:59:22;13.23;;;8.77;;
5876;SDS011;2964;42.144;24.730;2023-04-01T13:02:07;10.27;;;7.83;;
5876;SDS011;2964;42.144;24.730;2023-04-01T13:04:50;10.03;;;8.80;;
5876;SDS011;2964;42.144;24.730;2023-04-01T13:07:42;20.03;;;9.47;;
5876;SDS011;2964;42.144;24.730;2023-04-01T13:10:20;9.43;;;8.60;;
5876;SDS011;2964;42.144;24.730;2023-04-01T13:13:08;9.40;;;8.63;;
5876;SDS011;2964;42.144;24.730;2023-04-01T13:15:53;16.27;;;9.23;;
5876;SDS011;2964;42.144;24.730;2023-04-01T13:18:28;13.67;;;9.43;;
5876;SDS011;2964;42.144;24.730;2023-04-01T13:21:05;44.10;;;34.43;;
5876;SDS011;2964;42.144;24.730;2023-04-01T13:23:40;41.80;;;30.97;;
5876;SDS011;2964;42.144;24.730;2023-04-01T13:26:18;85.93;;;46.57;;
5876;SDS011;2964;42.144;24.730;2023-04-01T13:28:52;137.30;;;59.13;;
5876;SDS011;2964;42.144;24.730;2023-04-01T13:34:32;52.57;;;27.83;;
5876;SDS011;2964;42.144;24.730;2023-04-01T13:37:19;25.00;;;12.13;;
5876;SDS011;2964;42.144;24.730;2023-04-01T13:40:02;35.60;;;11.60;;
5876;SDS011;2964;42.144;24.730;2023-04-01T13:42:41;18.73;;;10.97;;
5876;SDS011;2964;42.144;24.730;2023-04-01T13:45:14;29.70;;;12.73;;
5876;SDS011;2964;42.144;24.730;2023-04-01T13:48:00;15.00;;;13.33;;
5876;SDS011;2964;42.144;24.730;2023-04-01T13:50:51;19.40;;;12.10;;
5876;SDS011;2964;42.144;24.730;2023-04-01T13:56:41;11.53;;;10.40;;
5876;SDS011;2964;42.144;24.730;2023-04-01T14:02:23;16.07;;;10.80;;
5876;SDS011;2964;42.144;24.730;2023-04-01T14:05:26;12.03;;;9.50;;
5876;SDS011;2964;42.144;24.730;2023-04-01T14:08:06;9.40;;;7.80;;
5876;SDS011;2964;42.144;24.730;2023-04-01T14:10:42;6.80;;;6.37;;
5876;SDS011;2964;42.144;24.730;2023-04-01T14:13:17;10.67;;;6.43;;
5876;SDS011;2964;42.144;24.730;2023-04-01T14:16:10;6.73;;;6.33;;
5876;SDS011;2964;42.144;24.730;2023-04-01T14:18:55;11.50;;;6.67;;
5876;SDS011;2964;42.144;24.730;2023-04-01T14:21:35;6.90;;;6.37;;
5876;SDS011;2964;42.144;24.730;2023-04-01T14:24:13;7.37;;;6.70;;
5876;SDS011;2964;42.144;24.730;2023-04-01T14:26:54;7.83;;;7.23;;
5876;SDS011;2964;42.144;24.730;2023-04-01T14:29:44;7.87;;;7.33;;
5876;SDS011;2964;42.144;24.730;2023-04-01T14:32:24;8.07;;;7.47;;
5876;SDS011;2964;42.144;24.730;2023-04-01T14:35:09;7.47;;;6.97;;
5876;SDS011;2964;42.144;24.730;2023-04-01T14:43:51;7.53;;;7.03;;
5876;SDS011;2964;42.144;24.730;2023-04-01T14:49:41;6.77;;;6.37;;
5876;SDS011;2964;42.144;24.730;2023-04-01T14:52:13;8.10;;;7.37;;
5876;SDS011;2964;42.144;24.730;2023-04-01T14:54:44;8.90;;;7.07;;
5876;SDS011;2964;42.144;24.730;2023-04-01T14:57:16;7.07;;;6.37;;
5876;SDS011;2964;42.144;24.730;2023-04-01T14:59:51;7.77;;;7.27;;
5876;SDS011;2964;42.144;24.730;2023-04-01T15:05:16;7.30;;;6.67;;
5876;SDS011;2964;42.144;24.730;2023-04-01T15:08:05;8.07;;;7.27;;
5876;SDS011;2964;42.144;24.730;2023-04-01T15:10:43;6.47;;;6.17;;
5876;SDS011;2964;42.144;24.730;2023-04-01T15:13:38;7.47;;;6.80;;
5876;SDS011;2964;42.144;24.730;2023-04-01T15:16:24;6.73;;;6.30;;
5876;SDS011;2964;42.144;24.730;2023-04-01T15:19:01;6.27;;;5.87;;
5876;SDS011;2964;42.144;24.730;2023-04-01T15:21:44;6.47;;;5.97;;
5876;SDS011;2964;42.144;24.730;2023-04-01T15:24:46;6.73;;;6.33;;
5876;SDS011;2964;42.144;24.730;2023-04-01T15:27:31;6.10;;;5.80;;
5876;SDS011;2964;42.144;24.730;2023-04-01T15:30:23;6.03;;;5.63;;
5876;SDS011;2964;42.144;24.730;2023-04-01T15:33:06;5.90;;;5.50;;
5876;SDS011;2964;42.144;24.730;2023-04-01T15:35:46;6.83;;;6.40;;
5876;SDS011;2964;42.144;24.730;2023-04-01T15:38:24;6.53;;;6.20;;
5876;SDS011;2964;42.144;24.730;2023-04-01T15:41:02;11.33;;;6.80;;
5876;SDS011;2964;42.144;24.730;2023-04-01T15:43:37;7.17;;;6.53;;
5876;SDS011;2964;42.144;24.730;2023-04-01T15:49:12;7.00;;;6.40;;
5876;SDS011;2964;42.144;24.730;2023-04-01T15:51:58;7.80;;;6.90;;
5876;SDS011;2964;42.144;24.730;2023-04-01T15:54:50;7.73;;;7.03;;
5876;SDS011;2964;42.144;24.730;2023-04-01T15:57:47;6.57;;;6.07;;
5876;SDS011;2964;42.144;24.730;2023-04-01T16:00:30;9.47;;;8.57;;
5876;SDS011;2964;42.144;24.730;2023-04-01T16:03:18;8.07;;;6.53;;
5876;SDS011;2964;42.144;24.730;2023-04-01T16:09:06;7.73;;;7.17;;
5876;SDS011;2964;42.144;24.730;2023-04-01T16:11:49;10.80;;;7.27;;
5876;SDS011;2964;42.144;24.730;2023-04-01T16:14:26;7.20;;;6.57;;
5876;SDS011;2964;42.144;24.730;2023-04-01T16:17:11;8.10;;;7.50;;
5876;SDS011;2964;42.144;24.730;2023-04-01T16:19:54;8.00;;;7.23;;
5876;SDS011;2964;42.144;24.730;2023-04-01T16:22:27;9.13;;;8.33;;
5876;SDS011;2964;42.144;24.730;2023-04-01T16:25:05;9.10;;;7.87;;
5876;SDS011;2964;42.144;24.730;2023-04-01T16:27:56;8.83;;;7.67;;
5876;SDS011;2964;42.144;24.730;2023-04-01T16:30:34;8.30;;;7.47;;
5876;SDS011;2964;42.144;24.730;2023-04-01T16:33:03;8.30;;;7.70;;
5876;SDS011;2964;42.144;24.730;2023-04-01T16:35:41;7.53;;;7.03;;
5876;SDS011;2964;42.144;24.730;2023-04-01T16:38:16;10.00;;;7.27;;
5876;SDS011;2964;42.144;24.730;2023-04-01T16:40:52;7.70;;;7.03;;
5876;SDS011;2964;42.144;24.730;2023-04-01T16:43:35;7.17;;;6.77;;
5876;SDS011;2964;42.144;24.730;2023-04-01T16:49:05;11.93;;;7.03;;
5876;SDS011;2964;42.144;24.730;2023-04-01T16:51:45;8.10;;;7.40;;
5876;SDS011;2964;42.144;24.730;2023-04-01T16:54:16;8.30;;;6.93;;
5876;SDS011;2964;42.144;24.730;2023-04-01T16:56:54;7.27;;;6.77;;
5876;SDS011;2964;42.144;24.730;2023-04-01T16:59:22;6.93;;;6.43;;
5876;SDS011;2964;42.144;24.730;2023-04-01T17:01:57;7.03;;;6.30;;
5876;SDS011;2964;42.144;24.730;2023-04-01T17:04:35;7.07;;;6.43;;
5876;SDS011;2964;42.144;24.730;2023-04-01T17:07:10;7.97;;;7.37;;
5876;SDS011;2964;42.144;24.730;2023-04-01T17:09:48;9.83;;;8.87;;
5876;SDS011;2964;42.144;24.730;2023-04-01T17:12:27;9.00;;;8.30;;
5876;SDS011;2964;42.144;24.730;2023-04-01T17:15:02;8.80;;;8.20;;
5876;SDS011;2964;42.144;24.730;2023-04-01T17:17:42;10.33;;;9.53;;